Tulsa International Airport
KTUL : now visible

Airfield :











YOU CAN JOIN US ON...

 
LOGIN :

Register | Disclaimer

   EN    FR    IT 

 









Legend :    VFR   Marginal VFR   IFR   Intensive IFR   Very Intensive IFR
Visi :
Ceiling :
>= 8 km
>= 3000ft
5 to 8 km
1000 to 3000 ft
1500m to 5 km
500 to 1000 ft
800 to 1500m
200 to 500 ft
< 800m
< 200 ft
Symbols :   Thunderstorms  Fog  Heavy snow  Heavy precipitations  Wind > 20 kt






- Airport Elevation : 677 ft
- IATA code : TUL


KTUL - Tulsa International

CURRENT METAR :
  • 200353Z 01011G18KT 10SM FEW110 13/07 A2996 RMK AO2 SLP140 T01330067

EXPIRED METARs :
  • 200253Z 02014G23KT 10SM FEW110 15/07 A2993 RMK AO2 SLP133 T01500072 53021
  • 200153Z 10007KT 10SM SCT110 16/04 A2989 RMK AO2 SLP117 T01560044

TAF KTUL
Valid from the 20 at 00:00 until the 21 at 00:00 UTC


192345Z 2000/2024 17007KT P6SM SCT080
FM200200 01014G21KT P6SM SCT080
FM201200 36015G24KT P6SM BKN020
FM201500 36014G22KT 5SM -RA BR OVC015
TEMPO 2015/2019 1SM -SN BR OVC008
FM201900 35014G22KT P6SM BKN020
FM202100 35013G21KT P6SM BKN040
KZKC FIR / North America



MET'MAP, your aeronautical weather chart ! - Copyright ORBIFLY December 2007 - Disclaimer

ORBIFLY MET'MAP TEAM :

Programming & Development : Alexandra Zaïnal
Concept & original design : Baudouin d'Aumeries
Assistance for programming : Marc-Olivier Méhu
Technical & hardware support : Manuel Goepfert

Contact : metmap@orbifly.com




SOURCES & CREDITS :

   NOAA       Earth
Advisory